sensor_id;sensor_type;location;lat;lon;timestamp;P1;durP1;ratioP1;P2;durP2;ratioP2
21878;SDS011;27908;42.708;23.278;2023-07-13T00:01:24;11.93;;;5.32;;
21878;SDS011;27908;42.708;23.278;2023-07-13T00:03:50;12.67;;;4.63;;
21878;SDS011;27908;42.708;23.278;2023-07-13T00:06:15;10.82;;;4.93;;
21878;SDS011;27908;42.708;23.278;2023-07-13T00:08:41;10.50;;;4.80;;
21878;SDS011;27908;42.708;23.278;2023-07-13T00:11:06;9.80;;;4.77;;
21878;SDS011;27908;42.708;23.278;2023-07-13T00:13:32;11.13;;;4.57;;
21878;SDS011;27908;42.708;23.278;2023-07-13T00:15:57;10.53;;;4.60;;
21878;SDS011;27908;42.708;23.278;2023-07-13T00:18:23;10.70;;;5.30;;
21878;SDS011;27908;42.708;23.278;2023-07-13T00:20:49;9.73;;;4.47;;
21878;SDS011;27908;42.708;23.278;2023-07-13T00:23:15;9.68;;;3.95;;
21878;SDS011;27908;42.708;23.278;2023-07-13T00:25:42;10.50;;;4.70;;
21878;SDS011;27908;42.708;23.278;2023-07-13T00:28:07;8.50;;;4.30;;
21878;SDS011;27908;42.708;23.278;2023-07-13T00:30:33;11.37;;;5.40;;
21878;SDS011;27908;42.708;23.278;2023-07-13T00:32:58;10.93;;;4.50;;
21878;SDS011;27908;42.708;23.278;2023-07-13T00:35:26;9.70;;;4.32;;
21878;SDS011;27908;42.708;23.278;2023-07-13T00:37:52;9.57;;;4.60;;
21878;SDS011;27908;42.708;23.278;2023-07-13T00:40:18;9.75;;;4.88;;
21878;SDS011;27908;42.708;23.278;2023-07-13T00:42:43;11.13;;;4.87;;
21878;SDS011;27908;42.708;23.278;2023-07-13T00:47:37;11.50;;;4.30;;
21878;SDS011;27908;42.708;23.278;2023-07-13T00:50:04;10.85;;;5.13;;
21878;SDS011;27908;42.708;23.278;2023-07-13T00:52:33;10.05;;;5.18;;
21878;SDS011;27908;42.708;23.278;2023-07-13T00:55:01;9.75;;;4.75;;
21878;SDS011;27908;42.708;23.278;2023-07-13T00:57:27;9.93;;;4.70;;
21878;SDS011;27908;42.708;23.278;2023-07-13T00:59:53;10.30;;;5.00;;
21878;SDS011;27908;42.708;23.278;2023-07-13T01:02:22;9.98;;;5.47;;
21878;SDS011;27908;42.708;23.278;2023-07-13T01:04:49;12.13;;;5.27;;
21878;SDS011;27908;42.708;23.278;2023-07-13T01:07:15;9.45;;;5.35;;
21878;SDS011;27908;42.708;23.278;2023-07-13T01:09:40;11.13;;;5.13;;
21878;SDS011;27908;42.708;23.278;2023-07-13T01:12:06;10.97;;;5.27;;
21878;SDS011;27908;42.708;23.278;2023-07-13T01:14:32;9.82;;;4.70;;
21878;SDS011;27908;42.708;23.278;2023-07-13T01:16:57;12.67;;;5.73;;
21878;SDS011;27908;42.708;23.278;2023-07-13T01:22:16;13.93;;;5.15;;
21878;SDS011;27908;42.708;23.278;2023-07-13T01:24:46;14.98;;;5.45;;
21878;SDS011;27908;42.708;23.278;2023-07-13T01:27:13;15.43;;;5.13;;
21878;SDS011;27908;42.708;23.278;2023-07-13T01:29:41;10.87;;;5.63;;
21878;SDS011;27908;42.708;23.278;2023-07-13T01:32:12;11.45;;;5.57;;
21878;SDS011;27908;42.708;23.278;2023-07-13T01:34:40;14.13;;;5.55;;
21878;SDS011;27908;42.708;23.278;2023-07-13T01:37:09;10.13;;;5.47;;
21878;SDS011;27908;42.708;23.278;2023-07-13T01:39:36;12.07;;;5.45;;
21878;SDS011;27908;42.708;23.278;2023-07-13T01:42:02;11.77;;;5.93;;
21878;SDS011;27908;42.708;23.278;2023-07-13T01:44:28;10.95;;;5.18;;
21878;SDS011;27908;42.708;23.278;2023-07-13T01:46:54;11.10;;;5.20;;
21878;SDS011;27908;42.708;23.278;2023-07-13T01:49:19;13.13;;;6.07;;
21878;SDS011;27908;42.708;23.278;2023-07-13T01:51:45;9.70;;;5.50;;
21878;SDS011;27908;42.708;23.278;2023-07-13T01:54:10;12.15;;;5.22;;
21878;SDS011;27908;42.708;23.278;2023-07-13T01:56:36;14.00;;;5.83;;
21878;SDS011;27908;42.708;23.278;2023-07-13T01:59:01;15.00;;;6.93;;
21878;SDS011;27908;42.708;23.278;2023-07-13T02:01:26;15.50;;;6.07;;
21878;SDS011;27908;42.708;23.278;2023-07-13T02:03:52;12.00;;;5.63;;
21878;SDS011;27908;42.708;23.278;2023-07-13T02:06:17;12.63;;;7.50;;
21878;SDS011;27908;42.708;23.278;2023-07-13T02:08:43;11.30;;;6.03;;
21878;SDS011;27908;42.708;23.278;2023-07-13T02:11:08;11.53;;;6.03;;
21878;SDS011;27908;42.708;23.278;2023-07-13T02:13:34;12.93;;;5.70;;
21878;SDS011;27908;42.708;23.278;2023-07-13T02:16:00;13.73;;;6.40;;
21878;SDS011;27908;42.708;23.278;2023-07-13T02:18:25;11.02;;;5.43;;
21878;SDS011;27908;42.708;23.278;2023-07-13T02:20:51;13.17;;;5.70;;
21878;SDS011;27908;42.708;23.278;2023-07-13T02:23:16;11.97;;;6.07;;
21878;SDS011;27908;42.708;23.278;2023-07-13T02:25:42;10.80;;;6.15;;
21878;SDS011;27908;42.708;23.278;2023-07-13T02:28:07;10.77;;;6.13;;
21878;SDS011;27908;42.708;23.278;2023-07-13T02:30:33;11.07;;;6.50;;
21878;SDS011;27908;42.708;23.278;2023-07-13T02:32:59;10.65;;;5.65;;
21878;SDS011;27908;42.708;23.278;2023-07-13T02:35:25;10.77;;;5.53;;
21878;SDS011;27908;42.708;23.278;2023-07-13T02:37:50;10.37;;;5.70;;
21878;SDS011;27908;42.708;23.278;2023-07-13T02:40:15;11.93;;;6.07;;
21878;SDS011;27908;42.708;23.278;2023-07-13T02:42:41;11.55;;;5.97;;
21878;SDS011;27908;42.708;23.278;2023-07-13T02:45:07;9.77;;;5.93;;
21878;SDS011;27908;42.708;23.278;2023-07-13T02:47:34;13.10;;;6.35;;
21878;SDS011;27908;42.708;23.278;2023-07-13T02:50:00;12.43;;;6.70;;
21878;SDS011;27908;42.708;23.278;2023-07-13T02:52:26;14.53;;;6.73;;
21878;SDS011;27908;42.708;23.278;2023-07-13T02:54:51;12.07;;;6.53;;
21878;SDS011;27908;42.708;23.278;2023-07-13T02:57:17;14.10;;;6.83;;
21878;SDS011;27908;42.708;23.278;2023-07-13T02:59:42;13.10;;;7.13;;
21878;SDS011;27908;42.708;23.278;2023-07-13T03:02:07;13.67;;;6.80;;
21878;SDS011;27908;42.708;23.278;2023-07-13T03:04:34;12.30;;;6.60;;
21878;SDS011;27908;42.708;23.278;2023-07-13T03:07:01;11.27;;;6.13;;
21878;SDS011;27908;42.708;23.278;2023-07-13T03:09:26;12.50;;;6.87;;
21878;SDS011;27908;42.708;23.278;2023-07-13T03:11:52;13.30;;;6.70;;
21878;SDS011;27908;42.708;23.278;2023-07-13T03:14:19;14.17;;;6.87;;
21878;SDS011;27908;42.708;23.278;2023-07-13T03:16:45;12.30;;;6.78;;
21878;SDS011;27908;42.708;23.278;2023-07-13T03:19:10;12.97;;;7.07;;
21878;SDS011;27908;42.708;23.278;2023-07-13T03:21:36;13.50;;;7.37;;
21878;SDS011;27908;42.708;23.278;2023-07-13T03:24:01;12.50;;;7.05;;
21878;SDS011;27908;42.708;23.278;2023-07-13T03:26:26;14.80;;;7.10;;
21878;SDS011;27908;42.708;23.278;2023-07-13T03:28:52;14.27;;;7.57;;
21878;SDS011;27908;42.708;23.278;2023-07-13T03:31:21;13.00;;;7.03;;
21878;SDS011;27908;42.708;23.278;2023-07-13T03:33:48;12.75;;;7.28;;
21878;SDS011;27908;42.708;23.278;2023-07-13T03:36:16;12.63;;;6.80;;
21878;SDS011;27908;42.708;23.278;2023-07-13T03:38:48;14.43;;;7.00;;
21878;SDS011;27908;42.708;23.278;2023-07-13T03:41:15;12.98;;;6.78;;
21878;SDS011;27908;42.708;23.278;2023-07-13T03:43:41;13.40;;;7.65;;
21878;SDS011;27908;42.708;23.278;2023-07-13T03:46:07;12.18;;;7.20;;
21878;SDS011;27908;42.708;23.278;2023-07-13T03:48:32;13.97;;;7.07;;
21878;SDS011;27908;42.708;23.278;2023-07-13T03:50:58;14.23;;;7.07;;
21878;SDS011;27908;42.708;23.278;2023-07-13T03:53:23;14.47;;;7.57;;
21878;SDS011;27908;42.708;23.278;2023-07-13T03:55:48;13.37;;;7.00;;
21878;SDS011;27908;42.708;23.278;2023-07-13T03:58:27;17.45;;;7.63;;
21878;SDS011;27908;42.708;23.278;2023-07-13T04:00:53;15.27;;;7.17;;
21878;SDS011;27908;42.708;23.278;2023-07-13T04:03:19;18.05;;;7.38;;
21878;SDS011;27908;42.708;23.278;2023-07-13T04:05:45;14.32;;;7.30;;
21878;SDS011;27908;42.708;23.278;2023-07-13T04:08:11;13.67;;;7.83;;
21878;SDS011;27908;42.708;23.278;2023-07-13T04:10:36;12.98;;;7.30;;
21878;SDS011;27908;42.708;23.278;2023-07-13T04:13:03;13.63;;;7.55;;
21878;SDS011;27908;42.708;23.278;2023-07-13T04:15:30;15.70;;;8.00;;
21878;SDS011;27908;42.708;23.278;2023-07-13T04:17:56;14.40;;;7.80;;
21878;SDS011;27908;42.708;23.278;2023-07-13T04:20:22;13.43;;;8.10;;
21878;SDS011;27908;42.708;23.278;2023-07-13T04:22:47;13.97;;;7.67;;
21878;SDS011;27908;42.708;23.278;2023-07-13T04:25:13;15.50;;;8.13;;
21878;SDS011;27908;42.708;23.278;2023-07-13T04:27:38;17.60;;;7.75;;
21878;SDS011;27908;42.708;23.278;2023-07-13T04:30:05;13.87;;;7.73;;
21878;SDS011;27908;42.708;23.278;2023-07-13T04:32:31;13.63;;;7.70;;
21878;SDS011;27908;42.708;23.278;2023-07-13T04:34:57;15.18;;;8.07;;
21878;SDS011;27908;42.708;23.278;2023-07-13T04:37:24;15.18;;;8.20;;
21878;SDS011;27908;42.708;23.278;2023-07-13T04:39:52;14.52;;;8.80;;
21878;SDS011;27908;42.708;23.278;2023-07-13T04:42:18;16.90;;;9.20;;
21878;SDS011;27908;42.708;23.278;2023-07-13T04:44:49;15.23;;;9.13;;
21878;SDS011;27908;42.708;23.278;2023-07-13T04:47:15;14.87;;;8.80;;
21878;SDS011;27908;42.708;23.278;2023-07-13T04:49:41;18.83;;;8.80;;
21878;SDS011;27908;42.708;23.278;2023-07-13T04:52:07;16.97;;;9.00;;
21878;SDS011;27908;42.708;23.278;2023-07-13T04:54:33;19.27;;;8.77;;
21878;SDS011;27908;42.708;23.278;2023-07-13T04:56:59;20.08;;;8.68;;
21878;SDS011;27908;42.708;23.278;2023-07-13T04:59:25;17.57;;;7.73;;
21878;SDS011;27908;42.708;23.278;2023-07-13T05:01:50;21.77;;;9.07;;
21878;SDS011;27908;42.708;23.278;2023-07-13T05:04:16;16.23;;;8.67;;
21878;SDS011;27908;42.708;23.278;2023-07-13T05:06:41;15.70;;;8.30;;
21878;SDS011;27908;42.708;23.278;2023-07-13T05:09:07;18.70;;;8.83;;
21878;SDS011;27908;42.708;23.278;2023-07-13T05:11:32;19.03;;;8.57;;
21878;SDS011;27908;42.708;23.278;2023-07-13T05:13:58;17.20;;;7.83;;
21878;SDS011;27908;42.708;23.278;2023-07-13T05:16:23;14.00;;;8.07;;
21878;SDS011;27908;42.708;23.278;2023-07-13T05:18:49;14.33;;;8.03;;
21878;SDS011;27908;42.708;23.278;2023-07-13T05:21:14;19.20;;;7.70;;
21878;SDS011;27908;42.708;23.278;2023-07-13T05:23:40;15.55;;;8.10;;
21878;SDS011;27908;42.708;23.278;2023-07-13T05:26:06;19.85;;;8.48;;
21878;SDS011;27908;42.708;23.278;2023-07-13T05:28:32;16.20;;;9.40;;
21878;SDS011;27908;42.708;23.278;2023-07-13T05:30:58;16.75;;;8.77;;
21878;SDS011;27908;42.708;23.278;2023-07-13T05:33:23;13.63;;;7.27;;
21878;SDS011;27908;42.708;23.278;2023-07-13T05:35:50;16.92;;;8.07;;
21878;SDS011;27908;42.708;23.278;2023-07-13T05:38:16;16.95;;;8.85;;
21878;SDS011;27908;42.708;23.278;2023-07-13T05:40:44;16.97;;;7.43;;
21878;SDS011;27908;42.708;23.278;2023-07-13T05:43:11;13.85;;;7.40;;
21878;SDS011;27908;42.708;23.278;2023-07-13T05:45:37;19.20;;;7.83;;
21878;SDS011;27908;42.708;23.278;2023-07-13T05:48:02;15.90;;;7.85;;
21878;SDS011;27908;42.708;23.278;2023-07-13T05:50:28;16.53;;;8.03;;
21878;SDS011;27908;42.708;23.278;2023-07-13T05:52:53;16.33;;;7.60;;
21878;SDS011;27908;42.708;23.278;2023-07-13T05:55:19;18.60;;;7.80;;
21878;SDS011;27908;42.708;23.278;2023-07-13T05:57:45;15.73;;;8.47;;
21878;SDS011;27908;42.708;23.278;2023-07-13T06:00:10;19.10;;;8.30;;
21878;SDS011;27908;42.708;23.278;2023-07-13T06:02:36;17.20;;;8.33;;
21878;SDS011;27908;42.708;23.278;2023-07-13T06:05:02;16.30;;;8.77;;
21878;SDS011;27908;42.708;23.278;2023-07-13T06:07:27;18.07;;;8.97;;
21878;SDS011;27908;42.708;23.278;2023-07-13T06:09:53;15.47;;;7.67;;
21878;SDS011;27908;42.708;23.278;2023-07-13T06:12:18;15.15;;;8.25;;
21878;SDS011;27908;42.708;23.278;2023-07-13T06:14:44;16.33;;;7.87;;
21878;SDS011;27908;42.708;23.278;2023-07-13T06:17:09;16.07;;;8.00;;
21878;SDS011;27908;42.708;23.278;2023-07-13T06:19:34;16.37;;;8.07;;
21878;SDS011;27908;42.708;23.278;2023-07-13T06:22:00;17.83;;;8.63;;
21878;SDS011;27908;42.708;23.278;2023-07-13T06:24:25;20.52;;;8.10;;
21878;SDS011;27908;42.708;23.278;2023-07-13T06:26:51;17.00;;;7.93;;
21878;SDS011;27908;42.708;23.278;2023-07-13T06:29:17;15.63;;;7.45;;
21878;SDS011;27908;42.708;23.278;2023-07-13T06:31:42;14.60;;;7.83;;
21878;SDS011;27908;42.708;23.278;2023-07-13T06:34:07;14.43;;;7.50;;
21878;SDS011;27908;42.708;23.278;2023-07-13T06:36:33;16.53;;;8.30;;
21878;SDS011;27908;42.708;23.278;2023-07-13T06:38:58;15.70;;;8.38;;
21878;SDS011;27908;42.708;23.278;2023-07-13T06:41:24;20.17;;;8.47;;
21878;SDS011;27908;42.708;23.278;2023-07-13T06:43:51;17.00;;;8.38;;
21878;SDS011;27908;42.708;23.278;2023-07-13T06:46:19;14.87;;;7.73;;
21878;SDS011;27908;42.708;23.278;2023-07-13T06:48:46;15.50;;;7.90;;
21878;SDS011;27908;42.708;23.278;2023-07-13T06:51:12;19.53;;;7.77;;
21878;SDS011;27908;42.708;23.278;2023-07-13T06:53:37;13.65;;;8.05;;
21878;SDS011;27908;42.708;23.278;2023-07-13T06:56:02;13.37;;;7.47;;
21878;SDS011;27908;42.708;23.278;2023-07-13T06:58:28;17.40;;;8.30;;
21878;SDS011;27908;42.708;23.278;2023-07-13T07:00:54;18.13;;;7.65;;
21878;SDS011;27908;42.708;23.278;2023-07-13T07:03:19;18.03;;;7.97;;
21878;SDS011;27908;42.708;23.278;2023-07-13T07:05:45;14.00;;;7.80;;
21878;SDS011;27908;42.708;23.278;2023-07-13T07:08:11;14.13;;;7.10;;
21878;SDS011;27908;42.708;23.278;2023-07-13T07:10:36;13.55;;;7.70;;
21878;SDS011;27908;42.708;23.278;2023-07-13T07:13:02;15.63;;;8.07;;
21878;SDS011;27908;42.708;23.278;2023-07-13T07:15:28;13.77;;;7.05;;
21878;SDS011;27908;42.708;23.278;2023-07-13T07:17:54;16.92;;;8.60;;
21878;SDS011;27908;42.708;23.278;2023-07-13T07:20:20;15.77;;;7.90;;
21878;SDS011;27908;42.708;23.278;2023-07-13T07:22:46;14.90;;;7.45;;
21878;SDS011;27908;42.708;23.278;2023-07-13T07:25:12;15.13;;;7.73;;
21878;SDS011;27908;42.708;23.278;2023-07-13T07:27:37;16.07;;;8.00;;
21878;SDS011;27908;42.708;23.278;2023-07-13T07:30:03;16.90;;;8.38;;
21878;SDS011;27908;42.708;23.278;2023-07-13T07:32:29;16.17;;;8.18;;
21878;SDS011;27908;42.708;23.278;2023-07-13T07:34:56;14.90;;;8.20;;
21878;SDS011;27908;42.708;23.278;2023-07-13T07:37:22;15.00;;;7.60;;
21878;SDS011;27908;42.708;23.278;2023-07-13T07:39:48;15.03;;;7.80;;
21878;SDS011;27908;42.708;23.278;2023-07-13T07:42:13;14.68;;;7.57;;
21878;SDS011;27908;42.708;23.278;2023-07-13T07:44:39;15.90;;;7.70;;
21878;SDS011;27908;42.708;23.278;2023-07-13T07:47:06;16.67;;;7.97;;
21878;SDS011;27908;42.708;23.278;2023-07-13T07:49:32;16.98;;;8.32;;
21878;SDS011;27908;42.708;23.278;2023-07-13T07:51:57;17.07;;;7.90;;
21878;SDS011;27908;42.708;23.278;2023-07-13T07:54:23;13.97;;;6.87;;
21878;SDS011;27908;42.708;23.278;2023-07-13T07:56:48;17.70;;;9.07;;
21878;SDS011;27908;42.708;23.278;2023-07-13T07:59:14;15.02;;;8.63;;
21878;SDS011;27908;42.708;23.278;2023-07-13T08:01:39;20.77;;;8.77;;
21878;SDS011;27908;42.708;23.278;2023-07-13T08:04:04;24.20;;;9.07;;
21878;SDS011;27908;42.708;23.278;2023-07-13T08:06:31;18.60;;;7.97;;
21878;SDS011;27908;42.708;23.278;2023-07-13T08:08:58;17.48;;;8.68;;
21878;SDS011;27908;42.708;23.278;2023-07-13T08:11:24;18.30;;;8.85;;
21878;SDS011;27908;42.708;23.278;2023-07-13T08:13:49;17.50;;;8.67;;
21878;SDS011;27908;42.708;23.278;2023-07-13T08:16:15;18.50;;;8.18;;
21878;SDS011;27908;42.708;23.278;2023-07-13T08:18:41;18.83;;;8.80;;
21878;SDS011;27908;42.708;23.278;2023-07-13T08:21:06;18.67;;;8.67;;
21878;SDS011;27908;42.708;23.278;2023-07-13T08:23:33;15.00;;;8.30;;
21878;SDS011;27908;42.708;23.278;2023-07-13T08:25:59;16.73;;;7.95;;
21878;SDS011;27908;42.708;23.278;2023-07-13T08:28:26;18.00;;;9.18;;
21878;SDS011;27908;42.708;23.278;2023-07-13T08:30:53;15.73;;;8.75;;
21878;SDS011;27908;42.708;23.278;2023-07-13T08:33:19;15.90;;;8.60;;
21878;SDS011;27908;42.708;23.278;2023-07-13T08:35:46;20.35;;;8.63;;
21878;SDS011;27908;42.708;23.278;2023-07-13T08:38:12;20.02;;;8.25;;
21878;SDS011;27908;42.708;23.278;2023-07-13T08:40:38;14.87;;;8.23;;
21878;SDS011;27908;42.708;23.278;2023-07-13T08:43:06;16.23;;;8.43;;
21878;SDS011;27908;42.708;23.278;2023-07-13T08:48:33;18.67;;;8.33;;
21878;SDS011;27908;42.708;23.278;2023-07-13T08:51:11;18.05;;;8.90;;
21878;SDS011;27908;42.708;23.278;2023-07-13T08:53:47;17.35;;;8.30;;
21878;SDS011;27908;42.708;23.278;2023-07-13T08:56:18;15.75;;;7.20;;
21878;SDS011;27908;42.708;23.278;2023-07-13T08:58:47;15.57;;;8.15;;
21878;SDS011;27908;42.708;23.278;2023-07-13T09:04:14;14.98;;;7.22;;
21878;SDS011;27908;42.708;23.278;2023-07-13T09:09:16;17.30;;;7.90;;
21878;SDS011;27908;42.708;23.278;2023-07-13T09:11:56;14.93;;;7.07;;
21878;SDS011;27908;42.708;23.278;2023-07-13T09:19:44;14.77;;;7.70;;
21878;SDS011;27908;42.708;23.278;2023-07-13T09:22:18;13.15;;;6.80;;
21878;SDS011;27908;42.708;23.278;2023-07-13T09:25:00;14.25;;;7.20;;
21878;SDS011;27908;42.708;23.278;2023-07-13T09:27:31;14.20;;;7.07;;
21878;SDS011;27908;42.708;23.278;2023-07-13T09:32:58;17.15;;;6.60;;
21878;SDS011;27908;42.708;23.278;2023-07-13T09:35:25;14.27;;;6.90;;
21878;SDS011;27908;42.708;23.278;2023-07-13T09:37:56;14.97;;;6.83;;
21878;SDS011;27908;42.708;23.278;2023-07-13T09:40:35;17.92;;;7.20;;
21878;SDS011;27908;42.708;23.278;2023-07-13T09:43:05;15.15;;;6.68;;
21878;SDS011;27908;42.708;23.278;2023-07-13T09:45:35;12.40;;;6.45;;
21878;SDS011;27908;42.708;23.278;2023-07-13T09:48:11;11.57;;;6.40;;
21878;SDS011;27908;42.708;23.278;2023-07-13T09:50:39;10.32;;;4.82;;
21878;SDS011;27908;42.708;23.278;2023-07-13T09:53:09;11.57;;;4.20;;
21878;SDS011;27908;42.708;23.278;2023-07-13T09:55:38;9.95;;;4.20;;
21878;SDS011;27908;42.708;23.278;2023-07-13T10:00:53;11.40;;;4.00;;
21878;SDS011;27908;42.708;23.278;2023-07-13T10:03:26;9.23;;;3.90;;
21878;SDS011;27908;42.708;23.278;2023-07-13T10:05:53;11.82;;;4.13;;
21878;SDS011;27908;42.708;23.278;2023-07-13T10:11:09;10.97;;;3.87;;
21878;SDS011;27908;42.708;23.278;2023-07-13T10:13:42;9.32;;;3.83;;
21878;SDS011;27908;42.708;23.278;2023-07-13T10:16:09;10.93;;;4.25;;
21878;SDS011;27908;42.708;23.278;2023-07-13T10:18:39;10.93;;;3.97;;
21878;SDS011;27908;42.708;23.278;2023-07-13T10:21:18;9.38;;;3.72;;
21878;SDS011;27908;42.708;23.278;2023-07-13T10:23:52;9.88;;;3.78;;
21878;SDS011;27908;42.708;23.278;2023-07-13T10:26:25;9.50;;;4.60;;
21878;SDS011;27908;42.708;23.278;2023-07-13T10:28:55;10.85;;;4.18;;
21878;SDS011;27908;42.708;23.278;2023-07-13T10:31:24;11.23;;;3.53;;
21878;SDS011;27908;42.708;23.278;2023-07-13T10:33:50;13.00;;;3.92;;
21878;SDS011;27908;42.708;23.278;2023-07-13T10:38:57;9.67;;;3.80;;
21878;SDS011;27908;42.708;23.278;2023-07-13T10:41:26;10.25;;;3.67;;
21878;SDS011;27908;42.708;23.278;2023-07-13T10:43:55;9.38;;;4.03;;
21878;SDS011;27908;42.708;23.278;2023-07-13T10:46:24;8.77;;;3.75;;
21878;SDS011;27908;42.708;23.278;2023-07-13T10:48:56;9.23;;;3.70;;
21878;SDS011;27908;42.708;23.278;2023-07-13T10:51:24;10.13;;;3.57;;
21878;SDS011;27908;42.708;23.278;2023-07-13T10:56:42;8.63;;;3.60;;
21878;SDS011;27908;42.708;23.278;2023-07-13T11:04:24;8.35;;;3.35;;
21878;SDS011;27908;42.708;23.278;2023-07-13T11:06:53;9.77;;;3.50;;
21878;SDS011;27908;42.708;23.278;2023-07-13T11:22:46;9.80;;;3.60;;
21878;SDS011;27908;42.708;23.278;2023-07-13T11:30:41;12.80;;;3.80;;
21878;SDS011;27908;42.708;23.278;2023-07-13T11:33:20;12.27;;;4.32;;
21878;SDS011;27908;42.708;23.278;2023-07-13T11:38:50;11.90;;;4.00;;
21878;SDS011;27908;42.708;23.278;2023-07-13T11:41:35;13.38;;;4.32;;
21878;SDS011;27908;42.708;23.278;2023-07-13T11:44:17;9.82;;;4.07;;
21878;SDS011;27908;42.708;23.278;2023-07-13T11:46:48;12.43;;;4.43;;
21878;SDS011;27908;42.708;23.278;2023-07-13T11:49:18;15.02;;;4.53;;
21878;SDS011;27908;42.708;23.278;2023-07-13T11:51:45;10.60;;;3.80;;
21878;SDS011;27908;42.708;23.278;2023-07-13T11:54:33;11.50;;;4.03;;
21878;SDS011;27908;42.708;23.278;2023-07-13T11:57:23;8.98;;;3.88;;
21878;SDS011;27908;42.708;23.278;2023-07-13T11:59:50;12.88;;;4.45;;
21878;SDS011;27908;42.708;23.278;2023-07-13T12:02:36;9.67;;;4.23;;
21878;SDS011;27908;42.708;23.278;2023-07-13T12:05:04;12.23;;;4.22;;
21878;SDS011;27908;42.708;23.278;2023-07-13T12:07:31;12.52;;;4.20;;
21878;SDS011;27908;42.708;23.278;2023-07-13T12:12:55;10.90;;;3.90;;
21878;SDS011;27908;42.708;23.278;2023-07-13T12:15:23;9.10;;;3.40;;
21878;SDS011;27908;42.708;23.278;2023-07-13T12:17:53;10.55;;;4.13;;
21878;SDS011;27908;42.708;23.278;2023-07-13T12:20:25;15.32;;;4.25;;
21878;SDS011;27908;42.708;23.278;2023-07-13T12:23:04;11.82;;;4.30;;
21878;SDS011;27908;42.708;23.278;2023-07-13T12:25:30;11.10;;;4.82;;
21878;SDS011;27908;42.708;23.278;2023-07-13T12:27:56;15.63;;;7.97;;
21878;SDS011;27908;42.708;23.278;2023-07-13T12:30:29;14.18;;;4.53;;
21878;SDS011;27908;42.708;23.278;2023-07-13T12:33:08;14.50;;;7.72;;
21878;SDS011;27908;42.708;23.278;2023-07-13T12:35:47;8.97;;;3.87;;
21878;SDS011;27908;42.708;23.278;2023-07-13T12:38:17;13.13;;;3.95;;
21878;SDS011;27908;42.708;23.278;2023-07-13T12:40:43;13.02;;;6.75;;
21878;SDS011;27908;42.708;23.278;2023-07-13T12:43:12;10.85;;;3.92;;
21878;SDS011;27908;42.708;23.278;2023-07-13T12:45:39;11.23;;;4.37;;
21878;SDS011;27908;42.708;23.278;2023-07-13T12:48:28;15.50;;;7.93;;
21878;SDS011;27908;42.708;23.278;2023-07-13T12:50:54;15.30;;;6.15;;
21878;SDS011;27908;42.708;23.278;2023-07-13T12:53:27;10.35;;;4.65;;
21878;SDS011;27908;42.708;23.278;2023-07-13T12:55:56;11.70;;;4.05;;
21878;SDS011;27908;42.708;23.278;2023-07-13T12:58:28;13.93;;;4.90;;
21878;SDS011;27908;42.708;23.278;2023-07-13T13:00:57;18.38;;;8.68;;
21878;SDS011;27908;42.708;23.278;2023-07-13T13:03:35;19.42;;;9.48;;
21878;SDS011;27908;42.708;23.278;2023-07-13T13:06:05;11.63;;;3.67;;
21878;SDS011;27908;42.708;23.278;2023-07-13T13:08:47;12.48;;;4.85;;
21878;SDS011;27908;42.708;23.278;2023-07-13T13:11:17;10.63;;;3.70;;
21878;SDS011;27908;42.708;23.278;2023-07-13T13:13:44;11.82;;;4.68;;
21878;SDS011;27908;42.708;23.278;2023-07-13T13:18:50;10.80;;;3.35;;
21878;SDS011;27908;42.708;23.278;2023-07-13T13:21:17;11.50;;;3.70;;
21878;SDS011;27908;42.708;23.278;2023-07-13T13:23:44;13.63;;;5.23;;
21878;SDS011;27908;42.708;23.278;2023-07-13T13:26:11;15.35;;;3.80;;
21878;SDS011;27908;42.708;23.278;2023-07-13T13:28:40;12.45;;;6.32;;
21878;SDS011;27908;42.708;23.278;2023-07-13T13:31:07;11.82;;;4.97;;
21878;SDS011;27908;42.708;23.278;2023-07-13T13:33:38;9.60;;;3.53;;
21878;SDS011;27908;42.708;23.278;2023-07-13T13:36:16;9.67;;;3.10;;
21878;SDS011;27908;42.708;23.278;2023-07-13T13:38:43;14.63;;;5.90;;
21878;SDS011;27908;42.708;23.278;2023-07-13T13:41:10;16.95;;;7.75;;
21878;SDS011;27908;42.708;23.278;2023-07-13T13:43:38;15.13;;;7.10;;
21878;SDS011;27908;42.708;23.278;2023-07-13T13:46:05;10.02;;;3.28;;
21878;SDS011;27908;42.708;23.278;2023-07-13T13:48:39;16.65;;;5.60;;
21878;SDS011;27908;42.708;23.278;2023-07-13T13:51:13;11.23;;;3.25;;
21878;SDS011;27908;42.708;23.278;2023-07-13T13:53:41;13.55;;;3.55;;
21878;SDS011;27908;42.708;23.278;2023-07-13T13:56:07;11.67;;;3.40;;
21878;SDS011;27908;42.708;23.278;2023-07-13T13:58:33;21.60;;;12.90;;
21878;SDS011;27908;42.708;23.278;2023-07-13T14:00:59;12.43;;;4.47;;
21878;SDS011;27908;42.708;23.278;2023-07-13T14:03:25;15.23;;;3.83;;
21878;SDS011;27908;42.708;23.278;2023-07-13T14:05:50;9.63;;;3.92;;
21878;SDS011;27908;42.708;23.278;2023-07-13T14:08:17;11.63;;;4.20;;
21878;SDS011;27908;42.708;23.278;2023-07-13T14:10:48;14.35;;;8.30;;
21878;SDS011;27908;42.708;23.278;2023-07-13T14:13:19;12.33;;;4.23;;
21878;SDS011;27908;42.708;23.278;2023-07-13T14:15:48;9.23;;;3.17;;
21878;SDS011;27908;42.708;23.278;2023-07-13T14:18:14;10.95;;;3.20;;
21878;SDS011;27908;42.708;23.278;2023-07-13T14:20:46;10.90;;;3.55;;
21878;SDS011;27908;42.708;23.278;2023-07-13T14:23:14;15.82;;;8.70;;
21878;SDS011;27908;42.708;23.278;2023-07-13T14:25:40;13.17;;;7.10;;
21878;SDS011;27908;42.708;23.278;2023-07-13T14:31:02;12.25;;;5.45;;
21878;SDS011;27908;42.708;23.278;2023-07-13T14:33:27;14.40;;;6.40;;
21878;SDS011;27908;42.708;23.278;2023-07-13T14:35:52;11.63;;;3.30;;
21878;SDS011;27908;42.708;23.278;2023-07-13T14:38:18;9.82;;;3.50;;
21878;SDS011;27908;42.708;23.278;2023-07-13T14:40:45;9.20;;;3.05;;
21878;SDS011;27908;42.708;23.278;2023-07-13T14:43:12;11.40;;;3.73;;
21878;SDS011;27908;42.708;23.278;2023-07-13T14:45:42;9.45;;;3.30;;
21878;SDS011;27908;42.708;23.278;2023-07-13T14:48:17;10.63;;;3.50;;
21878;SDS011;27908;42.708;23.278;2023-07-13T14:50:50;11.07;;;3.40;;
21878;SDS011;27908;42.708;23.278;2023-07-13T14:53:21;10.60;;;3.35;;
21878;SDS011;27908;42.708;23.278;2023-07-13T14:55:47;10.23;;;3.30;;
21878;SDS011;27908;42.708;23.278;2023-07-13T14:58:13;10.27;;;3.17;;
21878;SDS011;27908;42.708;23.278;2023-07-13T15:00:38;10.57;;;3.40;;
21878;SDS011;27908;42.708;23.278;2023-07-13T15:03:05;11.43;;;4.50;;
21878;SDS011;27908;42.708;23.278;2023-07-13T15:05:44;11.45;;;3.50;;
21878;SDS011;27908;42.708;23.278;2023-07-13T15:08:10;13.60;;;3.33;;
21878;SDS011;27908;42.708;23.278;2023-07-13T15:10:35;16.80;;;7.72;;
21878;SDS011;27908;42.708;23.278;2023-07-13T15:13:14;18.20;;;10.87;;
21878;SDS011;27908;42.708;23.278;2023-07-13T15:15:49;13.90;;;6.03;;
21878;SDS011;27908;42.708;23.278;2023-07-13T15:18:17;16.17;;;6.97;;
21878;SDS011;27908;42.708;23.278;2023-07-13T15:20:45;13.80;;;7.97;;
21878;SDS011;27908;42.708;23.278;2023-07-13T15:23:13;12.27;;;3.70;;
21878;SDS011;27908;42.708;23.278;2023-07-13T15:25:40;12.07;;;4.85;;
21878;SDS011;27908;42.708;23.278;2023-07-13T15:28:06;10.88;;;3.47;;
21878;SDS011;27908;42.708;23.278;2023-07-13T15:30:35;12.40;;;7.60;;
21878;SDS011;27908;42.708;23.278;2023-07-13T15:36:07;12.82;;;3.72;;
21878;SDS011;27908;42.708;23.278;2023-07-13T15:38:33;9.30;;;3.30;;